createdAt,value
2023-03-18T00:00:43.651Z,7.80
2023-03-18T00:03:11.290Z,8.20
2023-03-18T00:05:39.433Z,7.72
2023-03-18T00:08:06.924Z,9.13
2023-03-18T00:10:35.286Z,7.90
2023-03-18T00:13:04.524Z,6.25
2023-03-18T00:15:31.715Z,9.13
2023-03-18T00:18:01.939Z,7.95
2023-03-18T00:20:38.549Z,7.40
2023-03-18T00:23:08.804Z,8.75
2023-03-18T00:25:37.114Z,6.40
2023-03-18T00:28:05.343Z,7.57
2023-03-18T00:30:33.283Z,7.03
2023-03-18T00:33:00.698Z,9.20
2023-03-18T00:35:28.138Z,8.10
2023-03-18T00:37:55.615Z,6.03
2023-03-18T00:40:28.531Z,6.18
2023-03-18T00:43:07.621Z,6.35
2023-03-18T00:45:37.807Z,7.90
2023-03-18T00:48:05.159Z,5.28
2023-03-18T00:50:32.529Z,6.13
2023-03-18T00:53:00.675Z,7.85
2023-03-18T00:55:28.685Z,6.55
2023-03-18T00:57:56.107Z,5.28
2023-03-18T01:00:23.311Z,6.90
2023-03-18T01:02:50.958Z,9.40
2023-03-18T01:05:18.523Z,4.38
2023-03-18T01:07:46.404Z,5.05
2023-03-18T01:10:14.630Z,3.42
2023-03-18T01:12:42.300Z,3.97
2023-03-18T01:15:11.340Z,4.15
2023-03-18T01:17:38.546Z,4.90
2023-03-18T01:20:06.055Z,4.00
2023-03-18T01:22:33.189Z,8.30
2023-03-18T01:25:00.254Z,4.38
2023-03-18T01:27:27.363Z,6.15
2023-03-18T01:29:54.682Z,6.45
2023-03-18T01:32:22.428Z,4.65
2023-03-18T01:34:49.693Z,5.25
2023-03-18T01:37:16.842Z,2.78
2023-03-18T01:39:44.016Z,3.05
2023-03-18T01:42:11.977Z,2.03
2023-03-18T01:44:39.401Z,4.57
2023-03-18T01:47:07.830Z,3.40
2023-03-18T01:49:36.893Z,6.43
2023-03-18T01:52:21.405Z,3.47
2023-03-18T01:55:00.482Z,2.08
2023-03-18T01:57:28.366Z,3.15
2023-03-18T01:59:56.112Z,2.95
2023-03-18T02:02:23.352Z,5.72
2023-03-18T02:04:52.042Z,3.72
2023-03-18T02:07:24.305Z,2.88
2023-03-18T02:09:52.100Z,3.67
2023-03-18T02:12:24.599Z,3.65
2023-03-18T02:14:53.113Z,5.45
2023-03-18T02:17:22.473Z,4.65
2023-03-18T02:19:55.361Z,3.90
2023-03-18T02:22:25.308Z,2.45
2023-03-18T02:24:57.740Z,5.13
2023-03-18T02:27:29.227Z,2.88
2023-03-18T02:30:01.697Z,5.35
2023-03-18T02:32:29.883Z,3.03
2023-03-18T02:34:57.642Z,4.10
2023-03-18T02:37:24.755Z,2.45
2023-03-18T02:39:51.939Z,3.22
2023-03-18T02:42:29.246Z,4.00
2023-03-18T02:44:56.436Z,5.40
2023-03-18T02:47:25.349Z,2.80
2023-03-18T02:49:52.650Z,4.00
2023-03-18T02:52:19.801Z,2.63
2023-03-18T02:54:46.927Z,3.63
2023-03-18T02:57:14.108Z,3.45
2023-03-18T02:59:41.456Z,3.33
2023-03-18T03:02:08.671Z,2.50
2023-03-18T03:04:35.914Z,4.40
2023-03-18T03:07:03.460Z,3.47
2023-03-18T03:09:31.049Z,3.15
2023-03-18T03:11:58.267Z,4.93
2023-03-18T03:14:25.374Z,3.30
2023-03-18T03:16:52.807Z,5.13
2023-03-18T03:19:19.956Z,3.80
2023-03-18T03:21:47.511Z,4.10
2023-03-18T03:24:14.684Z,3.47
2023-03-18T03:26:42.533Z,3.03
2023-03-18T03:29:09.681Z,3.95
2023-03-18T03:31:36.823Z,2.45
2023-03-18T03:34:04.221Z,3.03
2023-03-18T03:36:31.319Z,3.25
2023-03-18T03:38:58.465Z,4.07
2023-03-18T03:41:26.135Z,4.82
2023-03-18T03:43:53.510Z,4.22
2023-03-18T03:46:20.698Z,4.05
2023-03-18T03:48:48.078Z,4.18
2023-03-18T03:51:15.478Z,2.88
2023-03-18T03:53:43.723Z,6.55
2023-03-18T03:56:11.485Z,3.67
2023-03-18T03:58:38.669Z,6.63
2023-03-18T04:01:06.453Z,6.30
2023-03-18T04:03:33.887Z,4.00
2023-03-18T04:06:01.190Z,2.58
2023-03-18T04:08:28.350Z,4.15
2023-03-18T04:10:55.517Z,3.63
2023-03-18T04:13:23.425Z,5.38
2023-03-18T04:15:50.606Z,3.38
2023-03-18T04:18:17.686Z,3.25
2023-03-18T04:20:45.048Z,5.72
2023-03-18T04:23:12.621Z,3.88
2023-03-18T04:25:39.714Z,3.65
2023-03-18T04:28:06.821Z,3.42
2023-03-18T04:30:34.133Z,3.83
2023-03-18T04:33:02.089Z,3.30
2023-03-18T04:35:29.746Z,4.53
2023-03-18T04:37:57.074Z,3.50
2023-03-18T04:40:24.408Z,4.78
2023-03-18T04:42:51.541Z,3.28
2023-03-18T04:45:19.917Z,3.65
2023-03-18T04:47:54.338Z,3.33
2023-03-18T04:50:21.536Z,4.82
2023-03-18T04:52:48.826Z,5.82
2023-03-18T04:55:17.902Z,2.10
2023-03-18T04:57:45.670Z,3.95
2023-03-18T05:00:15.042Z,3.55
2023-03-18T05:02:42.374Z,3.05
2023-03-18T05:05:09.521Z,3.75
2023-03-18T05:07:36.927Z,3.30
2023-03-18T05:10:06.804Z,3.00
2023-03-18T05:12:34.530Z,7.22
2023-03-18T05:15:01.922Z,6.57
2023-03-18T05:17:29.800Z,3.05
2023-03-18T05:19:57.345Z,5.55
2023-03-18T05:22:24.822Z,2.80
2023-03-18T05:24:52.107Z,3.88
2023-03-18T05:27:19.952Z,4.53
2023-03-18T05:29:47.282Z,3.20
2023-03-18T05:32:17.707Z,3.95
2023-03-18T05:34:44.926Z,3.28
2023-03-18T05:37:13.980Z,2.75
2023-03-18T05:39:43.134Z,3.75
2023-03-18T05:42:11.539Z,2.55
2023-03-18T05:44:40.333Z,3.83
2023-03-18T05:47:07.679Z,45.67
2023-03-18T05:49:34.961Z,62.38
2023-03-18T05:52:02.921Z,17.52
2023-03-18T05:54:30.101Z,12.38
2023-03-18T05:56:58.096Z,6.47
2023-03-18T05:59:25.254Z,5.57
2023-03-18T06:01:53.826Z,4.13
2023-03-18T06:04:21.119Z,5.18
2023-03-18T06:06:48.520Z,5.85
2023-03-18T06:09:16.538Z,3.70
2023-03-18T06:11:44.570Z,2.90
2023-03-18T06:14:12.737Z,3.97
2023-03-18T06:16:40.239Z,3.53
2023-03-18T06:19:07.975Z,2.92
2023-03-18T06:21:35.203Z,3.17
2023-03-18T06:24:02.368Z,2.92
2023-03-18T06:26:29.986Z,3.20
2023-03-18T06:28:59.366Z,4.72
2023-03-18T06:31:28.159Z,4.47
2023-03-18T06:33:55.560Z,4.32
2023-03-18T06:36:23.291Z,3.55
2023-03-18T06:38:50.932Z,4.90
2023-03-18T06:41:18.220Z,3.40
2023-03-18T06:43:47.844Z,6.07
2023-03-18T06:46:15.337Z,4.82
2023-03-18T06:48:43.074Z,4.63
2023-03-18T06:51:11.117Z,9.43
2023-03-18T06:53:38.549Z,8.77
2023-03-18T06:56:06.167Z,3.17
2023-03-18T06:58:33.503Z,4.78
2023-03-18T07:01:01.459Z,5.82
2023-03-18T07:03:29.458Z,4.75
2023-03-18T07:05:57.252Z,5.35
2023-03-18T07:08:24.538Z,58.90
2023-03-18T07:10:57.475Z,36.92
2023-03-18T07:13:24.955Z,24.52
2023-03-18T07:15:52.275Z,13.20
2023-03-18T07:18:19.613Z,7.43
2023-03-18T07:20:46.827Z,5.18
2023-03-18T07:23:14.020Z,6.20
2023-03-18T07:25:42.055Z,3.45
2023-03-18T07:28:09.311Z,3.35
2023-03-18T07:30:36.448Z,5.97
2023-03-18T07:33:03.940Z,8.02
2023-03-18T07:35:31.601Z,6.60
2023-03-18T07:37:58.939Z,7.50
2023-03-18T07:40:26.096Z,7.03
2023-03-18T07:42:53.572Z,4.55
2023-03-18T07:45:20.772Z,3.38
2023-03-18T07:47:48.115Z,4.75
2023-03-18T07:50:15.290Z,5.07
2023-03-18T07:52:42.985Z,6.25
2023-03-18T07:55:10.238Z,4.40
2023-03-18T07:57:37.774Z,8.05
2023-03-18T08:00:06.201Z,11.82
2023-03-18T08:02:34.664Z,9.27
2023-03-18T08:05:02.148Z,3.55
2023-03-18T08:07:29.760Z,2.42
2023-03-18T08:09:56.852Z,2.63
2023-03-18T08:12:24.034Z,2.88
2023-03-18T08:14:51.162Z,4.65
2023-03-18T08:17:18.422Z,2.78
2023-03-18T08:19:45.616Z,3.42
2023-03-18T08:22:12.757Z,1.77
2023-03-18T08:24:39.844Z,4.00
2023-03-18T08:27:07.211Z,3.58
2023-03-18T08:29:34.332Z,2.78
2023-03-18T08:32:02.113Z,3.30
2023-03-18T08:34:29.395Z,2.33
2023-03-18T08:36:56.550Z,4.75
2023-03-18T08:39:23.685Z,1.60
2023-03-18T08:41:50.796Z,5.82
2023-03-18T08:44:18.011Z,3.13
2023-03-18T08:46:45.295Z,4.20
2023-03-18T08:49:14.018Z,2.50
2023-03-18T08:51:41.266Z,4.25
2023-03-18T08:54:08.505Z,3.55
2023-03-18T08:56:35.646Z,4.20
2023-03-18T08:59:02.910Z,2.50
2023-03-18T09:01:30.281Z,2.58
2023-03-18T09:03:59.119Z,3.45
2023-03-18T09:06:27.652Z,2.88
2023-03-18T09:08:54.816Z,1.92
2023-03-18T09:11:21.999Z,2.50
2023-03-18T09:13:49.124Z,2.85
2023-03-18T09:16:17.262Z,4.90
2023-03-18T09:18:45.991Z,5.82
2023-03-18T09:21:14.873Z,2.67
2023-03-18T09:23:42.014Z,4.45
2023-03-18T09:26:09.248Z,2.80
2023-03-18T09:28:37.282Z,2.33
2023-03-18T09:31:05.997Z,2.28
2023-03-18T09:33:33.324Z,5.90
2023-03-18T09:36:00.466Z,4.35
2023-03-18T09:38:27.710Z,2.13
2023-03-18T09:41:06.982Z,4.63
2023-03-18T09:44:00.240Z,2.88
2023-03-18T09:46:53.825Z,3.50
2023-03-18T09:49:27.425Z,2.05
2023-03-18T09:52:00.246Z,2.83
2023-03-18T09:54:33.907Z,4.15
2023-03-18T09:57:01.548Z,2.42
2023-03-18T09:59:38.570Z,7.78
2023-03-18T10:02:16.349Z,4.15
2023-03-18T10:04:45.303Z,2.00
2023-03-18T10:07:14.333Z,3.08
2023-03-18T10:09:46.907Z,2.85
2023-03-18T10:12:32.962Z,3.75
2023-03-18T10:15:05.176Z,1.63
2023-03-18T10:17:35.528Z,8.13
2023-03-18T10:20:04.757Z,3.40
2023-03-18T10:22:52.660Z,5.28
2023-03-18T10:25:24.572Z,2.95
2023-03-18T10:28:00.895Z,3.60
2023-03-18T10:30:32.632Z,3.53
2023-03-18T10:33:04.591Z,1.40
2023-03-18T10:35:41.312Z,2.90
2023-03-18T10:38:27.570Z,3.80
2023-03-18T10:40:55.257Z,2.53
2023-03-18T10:43:32.007Z,3.90
2023-03-18T10:46:02.407Z,1.48
2023-03-18T10:48:33.070Z,2.65
2023-03-18T10:51:08.385Z,2.58
2023-03-18T10:53:39.405Z,3.25
2023-03-18T10:56:11.464Z,3.10
2023-03-18T10:58:39.369Z,2.92
2023-03-18T11:01:10.884Z,2.22
2023-03-18T11:03:41.934Z,2.35
2023-03-18T11:06:16.057Z,3.60
2023-03-18T11:08:43.166Z,6.18
2023-03-18T11:11:34.744Z,2.65
2023-03-18T11:14:03.274Z,2.13
2023-03-18T11:16:33.823Z,5.35
2023-03-18T11:19:06.979Z,2.85
2023-03-18T11:21:34.584Z,2.78
2023-03-18T11:24:09.008Z,3.05
2023-03-18T11:26:45.696Z,2.42
2023-03-18T11:29:17.710Z,4.78
2023-03-18T11:31:58.055Z,2.92
2023-03-18T11:34:26.322Z,2.25
2023-03-18T11:36:55.553Z,3.53
2023-03-18T11:39:25.061Z,5.38
2023-03-18T11:41:53.952Z,4.68
2023-03-18T11:44:26.073Z,1.75
2023-03-18T11:46:56.205Z,2.60
2023-03-18T11:49:24.356Z,4.55
2023-03-18T11:52:10.264Z,2.33
2023-03-18T11:54:47.123Z,2.63
2023-03-18T11:57:17.016Z,1.50
2023-03-18T11:59:59.135Z,3.00
2023-03-18T12:02:26.309Z,3.03
2023-03-18T12:04:53.647Z,2.45
2023-03-18T12:07:38.074Z,2.85
2023-03-18T12:10:09.449Z,4.38
2023-03-18T12:12:45.821Z,2.75
2023-03-18T12:15:19.103Z,2.97
2023-03-18T12:17:51.578Z,2.30
2023-03-18T12:20:24.861Z,3.00
2023-03-18T12:22:55.166Z,3.53
2023-03-18T12:25:32.218Z,1.95
2023-03-18T12:28:02.891Z,2.42
2023-03-18T12:30:49.079Z,2.25
2023-03-18T12:33:35.173Z,5.28
2023-03-18T12:36:14.556Z,2.35
2023-03-18T12:38:48.308Z,2.80
2023-03-18T12:41:36.098Z,5.13
2023-03-18T12:44:24.480Z,2.55
2023-03-18T12:46:54.576Z,3.05
2023-03-18T12:49:23.954Z,3.15
2023-03-18T12:51:54.981Z,2.08
2023-03-18T12:54:24.634Z,4.47
2023-03-18T12:56:54.647Z,2.78
2023-03-18T12:59:32.586Z,1.80
2023-03-18T13:01:59.869Z,1.80
2023-03-18T13:04:30.538Z,1.88
2023-03-18T13:07:17.242Z,2.97
2023-03-18T13:09:59.530Z,1.42
2023-03-18T13:12:37.968Z,3.80
2023-03-18T13:15:24.647Z,4.07
2023-03-18T13:17:53.704Z,1.75
2023-03-18T13:20:20.824Z,5.63
2023-03-18T13:22:54.893Z,4.25
2023-03-18T13:25:28.926Z,2.38
2023-03-18T13:27:56.449Z,3.88
2023-03-18T13:30:23.911Z,2.38
2023-03-18T13:32:51.056Z,4.55
2023-03-18T13:35:21.314Z,2.47
2023-03-18T13:37:58.640Z,1.25
2023-03-18T13:40:29.087Z,2.58
2023-03-18T13:43:03.340Z,2.72
2023-03-18T13:45:34.610Z,1.23
2023-03-18T13:48:03.573Z,2.63
2023-03-18T13:50:34.031Z,1.60
2023-03-18T13:53:02.713Z,2.80
2023-03-18T13:55:39.876Z,5.68
2023-03-18T13:58:13.931Z,2.85
2023-03-18T14:01:06.949Z,4.65
2023-03-18T14:03:42.379Z,4.07
2023-03-18T14:06:10.194Z,2.47
2023-03-18T14:08:37.299Z,4.57
2023-03-18T14:11:22.546Z,5.22
2023-03-18T14:14:04.029Z,2.97
2023-03-18T14:16:37.894Z,2.97
2023-03-18T14:19:07.905Z,4.25
2023-03-18T14:21:44.544Z,1.95
2023-03-18T14:24:21.831Z,2.47
2023-03-18T14:27:08.940Z,5.65
2023-03-18T14:29:41.742Z,2.22
2023-03-18T14:32:31.317Z,2.65
2023-03-18T14:35:17.179Z,3.33
2023-03-18T14:37:56.454Z,2.45
2023-03-18T14:40:23.631Z,2.83
2023-03-18T14:42:56.533Z,1.60
2023-03-18T14:45:28.117Z,4.72
2023-03-18T14:47:56.374Z,4.25
2023-03-18T14:50:29.544Z,3.17
2023-03-18T14:53:04.700Z,4.80
2023-03-18T14:55:34.074Z,2.90
2023-03-18T14:58:02.027Z,3.80
2023-03-18T15:00:31.268Z,1.88
2023-03-18T15:03:06.645Z,2.63
2023-03-18T15:05:35.935Z,2.38
2023-03-18T15:08:03.444Z,2.13
2023-03-18T15:10:32.909Z,2.72
2023-03-18T15:13:26.441Z,2.30
2023-03-18T15:15:54.976Z,2.78
2023-03-18T15:18:27.429Z,1.90
2023-03-18T15:21:04.005Z,4.10
2023-03-18T15:23:39.070Z,2.08
2023-03-18T15:26:19.047Z,2.88
2023-03-18T15:28:49.395Z,2.90
2023-03-18T15:31:25.752Z,2.30
2023-03-18T15:33:56.529Z,8.82
2023-03-18T15:36:23.718Z,6.68
2023-03-18T15:38:51.272Z,1.65
2023-03-18T15:41:21.729Z,3.80
2023-03-18T15:43:51.522Z,4.85
2023-03-18T15:46:23.377Z,3.58
2023-03-18T15:48:55.944Z,2.23
2023-03-18T15:51:25.289Z,1.95
2023-03-18T15:53:56.816Z,1.80
2023-03-18T15:56:30.126Z,3.38
2023-03-18T15:58:57.949Z,1.98
2023-03-18T16:01:25.395Z,3.50
2023-03-18T16:03:52.732Z,1.70
2023-03-18T16:06:19.818Z,2.50
2023-03-18T16:08:47.676Z,1.92
2023-03-18T16:11:15.370Z,3.53
2023-03-18T16:13:43.715Z,4.10
2023-03-18T16:16:19.471Z,2.28
2023-03-18T16:18:46.703Z,3.05
2023-03-18T16:21:14.821Z,1.70
2023-03-18T16:23:42.559Z,3.53
2023-03-18T16:26:14.988Z,2.30
2023-03-18T16:28:44.250Z,3.95
2023-03-18T16:31:12.633Z,5.47
2023-03-18T16:33:40.547Z,5.70
2023-03-18T16:36:08.421Z,5.03
2023-03-18T16:38:35.567Z,3.88
2023-03-18T16:41:02.998Z,8.38
2023-03-18T16:43:32.155Z,4.90
2023-03-18T16:46:00.630Z,3.95
2023-03-18T16:48:27.847Z,3.53
2023-03-18T16:50:56.897Z,1.77
2023-03-18T16:53:29.589Z,3.33
2023-03-18T16:56:00.677Z,4.47
2023-03-18T16:58:30.005Z,2.60
2023-03-18T17:00:57.987Z,3.78
2023-03-18T17:03:25.265Z,6.90
2023-03-18T17:05:52.961Z,10.98
2023-03-18T17:08:23.175Z,7.35
2023-03-18T17:10:52.429Z,3.53
2023-03-18T17:13:23.023Z,3.80
2023-03-18T17:15:50.993Z,5.57
2023-03-18T17:18:19.567Z,7.28
2023-03-18T17:20:47.140Z,6.07
2023-03-18T17:23:17.637Z,7.10
2023-03-18T17:25:47.170Z,10.48
2023-03-18T17:28:16.751Z,5.85
2023-03-18T17:30:43.973Z,8.18
2023-03-18T17:33:21.262Z,6.78
2023-03-18T17:35:48.446Z,7.72
2023-03-18T17:38:15.866Z,14.75
2023-03-18T17:40:43.472Z,8.05
2023-03-18T17:43:19.508Z,8.40
2023-03-18T17:45:46.895Z,10.98
2023-03-18T17:48:43.734Z,7.82
2023-03-18T17:51:18.115Z,8.52
2023-03-18T17:53:49.723Z,11.57
2023-03-18T17:56:18.353Z,11.05
2023-03-18T17:58:47.856Z,8.63
2023-03-18T18:01:16.377Z,11.88
2023-03-18T18:03:43.733Z,17.13
2023-03-18T18:06:17.701Z,51.10
2023-03-18T18:08:44.856Z,24.70
2023-03-18T18:11:26.510Z,32.00
2023-03-18T18:13:59.175Z,28.50
2023-03-18T18:18:53.550Z,33.15
2023-03-18T18:21:21.871Z,20.42
2023-03-18T18:23:49.148Z,21.98
2023-03-18T18:26:17.742Z,25.17
2023-03-18T18:28:49.472Z,26.98
2023-03-18T18:31:17.868Z,18.83
2023-03-18T18:33:45.602Z,16.08
2023-03-18T18:36:13.491Z,15.05
2023-03-18T18:38:41.095Z,14.55
2023-03-18T18:41:08.675Z,16.58
2023-03-18T18:43:36.122Z,15.38
2023-03-18T18:46:03.565Z,19.75
2023-03-18T18:48:35.302Z,25.55
2023-03-18T18:51:04.217Z,19.05
2023-03-18T18:53:32.896Z,17.17
2023-03-18T18:56:01.120Z,11.73
2023-03-18T18:58:30.215Z,15.27
2023-03-18T19:00:57.991Z,11.93
2023-03-18T19:03:26.555Z,12.73
2023-03-18T19:05:55.298Z,16.02
2023-03-18T19:08:22.747Z,14.30
2023-03-18T19:10:51.845Z,16.58
2023-03-18T19:13:18.988Z,14.90
2023-03-18T19:15:47.400Z,15.75
2023-03-18T19:18:23.653Z,18.67
2023-03-18T19:20:51.103Z,18.20
2023-03-18T19:23:29.439Z,15.75
2023-03-18T19:25:58.164Z,13.73
2023-03-18T19:28:58.443Z,15.55
2023-03-18T19:31:27.484Z,15.73
2023-03-18T19:33:54.696Z,19.65
2023-03-18T19:36:26.768Z,18.98
2023-03-18T19:38:54.652Z,21.55
2023-03-18T19:41:22.094Z,21.63
2023-03-18T19:43:49.587Z,16.80
2023-03-18T19:46:21.616Z,22.45
2023-03-18T19:48:48.832Z,13.68
2023-03-18T19:51:16.654Z,15.10
2023-03-18T19:53:44.915Z,19.08
2023-03-18T19:56:38.680Z,17.17
2023-03-18T19:59:06.580Z,12.75
2023-03-18T20:01:33.749Z,13.50
2023-03-18T20:04:01.587Z,13.73
2023-03-18T20:06:28.986Z,15.52
2023-03-18T20:08:56.100Z,13.90
2023-03-18T20:11:23.475Z,16.02
2023-03-18T20:13:50.800Z,17.40
2023-03-18T20:16:19.322Z,16.98
2023-03-18T20:18:47.010Z,21.98
2023-03-18T20:21:23.032Z,25.88
2023-03-18T20:23:51.192Z,25.58
2023-03-18T20:26:18.303Z,23.70
2023-03-18T20:28:45.800Z,25.42
2023-03-18T20:31:14.511Z,26.13
2023-03-18T20:33:41.826Z,39.47
2023-03-18T20:36:14.951Z,34.35
2023-03-18T20:38:42.603Z,35.75
2023-03-18T20:41:12.611Z,32.78
2023-03-18T20:43:39.733Z,21.92
2023-03-18T20:46:06.918Z,22.95
2023-03-18T20:48:34.175Z,28.55
2023-03-18T20:51:02.510Z,32.22
2023-03-18T20:53:29.804Z,27.55
2023-03-18T20:55:57.575Z,25.45
2023-03-18T20:58:25.723Z,27.70
2023-03-18T21:00:53.535Z,22.05
2023-03-18T21:03:27.342Z,20.92
2023-03-18T21:05:57.984Z,10.90
2023-03-18T21:08:26.069Z,13.40
2023-03-18T21:10:53.529Z,18.23
2023-03-18T21:13:26.955Z,15.75
2023-03-18T21:15:54.420Z,17.52
2023-03-18T21:18:21.703Z,15.65
2023-03-18T21:20:48.897Z,16.60
2023-03-18T21:23:23.871Z,15.52
2023-03-18T21:25:51.493Z,17.67
2023-03-18T21:28:19.603Z,19.67
2023-03-18T21:30:50.784Z,14.13
2023-03-18T21:33:19.715Z,14.38
2023-03-18T21:35:46.895Z,11.13
2023-03-18T21:38:14.069Z,21.58
2023-03-18T21:40:41.481Z,20.05
2023-03-18T21:43:27.514Z,22.13
2023-03-18T21:45:54.925Z,23.00
2023-03-18T21:48:22.361Z,25.13
2023-03-18T21:50:49.926Z,19.30
2023-03-18T21:53:18.438Z,22.85
2023-03-18T21:55:46.354Z,18.02
2023-03-18T21:58:23.663Z,20.23
2023-03-18T22:00:52.281Z,25.23
2023-03-18T22:03:20.242Z,20.02
2023-03-18T22:05:48.700Z,21.35
2023-03-18T22:08:15.889Z,28.58
2023-03-18T22:10:43.339Z,21.70
2023-03-18T22:13:21.038Z,18.23
2023-03-18T22:15:48.954Z,18.17
2023-03-18T22:18:16.665Z,19.83
2023-03-18T22:20:44.789Z,28.58
2023-03-18T22:23:13.498Z,20.23
2023-03-18T22:25:41.682Z,19.50
2023-03-18T22:28:08.861Z,17.40
2023-03-18T22:30:36.089Z,21.77
2023-03-18T22:33:04.528Z,22.23
2023-03-18T22:35:31.833Z,19.65
2023-03-18T22:37:59.306Z,22.23
2023-03-18T22:40:28.218Z,14.57
2023-03-18T22:43:02.127Z,19.60
2023-03-18T22:45:30.801Z,14.43
2023-03-18T22:47:59.175Z,17.33
2023-03-18T22:50:27.479Z,14.57
2023-03-18T22:52:58.785Z,14.98
2023-03-18T22:55:26.748Z,12.18
2023-03-18T22:57:53.819Z,14.25
2023-03-18T23:00:25.859Z,12.77
2023-03-18T23:02:54.765Z,16.95
2023-03-18T23:05:23.641Z,14.73
2023-03-18T23:07:51.388Z,19.20
2023-03-18T23:10:19.268Z,21.42
2023-03-18T23:12:46.924Z,22.27
2023-03-18T23:15:18.731Z,20.83
2023-03-18T23:17:46.283Z,25.65
2023-03-18T23:20:15.628Z,22.90
2023-03-18T23:22:43.689Z,24.77
2023-03-18T23:25:14.117Z,20.95
2023-03-18T23:27:41.308Z,15.13
2023-03-18T23:30:09.357Z,17.17
2023-03-18T23:32:37.320Z,16.55
2023-03-18T23:35:04.643Z,16.75
2023-03-18T23:37:32.059Z,11.55
2023-03-18T23:39:59.118Z,10.07
2023-03-18T23:42:26.497Z,13.75
2023-03-18T23:44:53.620Z,10.10
2023-03-18T23:47:20.855Z,11.35
2023-03-18T23:49:48.106Z,8.93
2023-03-18T23:52:16.366Z,12.00
2023-03-18T23:54:43.911Z,9.48
2023-03-18T23:57:11.365Z,8.10
2023-03-18T23:59:38.945Z,12.45
